sensor_id;sensor_type;location;lat;lon;timestamp;pressure;altitude;pressure_sealevel;temperature;humidity
45327;BME280;31062;49.678;24.560;2023-02-12T00:00:45;98879.78;;;2.30;83.68
45327;BME280;31062;49.678;24.560;2023-02-12T00:03:30;98703.94;;;1.19;83.71
45327;BME280;31062;49.678;24.560;2023-02-12T00:06:16;98876.78;;;2.28;83.55
45327;BME280;31062;49.678;24.560;2023-02-12T00:09:02;98905.16;;;2.25;83.51
45327;BME280;31062;49.678;24.560;2023-02-12T00:11:48;98857.94;;;2.19;83.55
45327;BME280;31062;49.678;24.560;2023-02-12T00:14:36;98872.56;;;2.27;83.52
45327;BME280;31062;49.678;24.560;2023-02-12T00:17:21;98870.84;;;2.24;83.29
45327;BME280;31062;49.678;24.560;2023-02-12T00:20:07;98916.59;;;2.29;83.86
45327;BME280;31062;49.678;24.560;2023-02-12T00:22:53;98851.53;;;2.05;83.79
45327;BME280;31062;49.678;24.560;2023-02-12T00:25:41;98890.72;;;2.30;83.75
45327;BME280;31062;49.678;24.560;2023-02-12T00:28:27;98692.84;;;0.95;84.04
45327;BME280;31062;49.678;24.560;2023-02-12T00:31:19;98850.56;;;2.02;83.68
45327;BME280;31062;49.678;24.560;2023-02-12T00:34:06;98889.22;;;2.29;83.61
45327;BME280;31062;49.678;24.560;2023-02-12T00:36:51;98822.28;;;1.83;83.64
45327;BME280;31062;49.678;24.560;2023-02-12T00:39:37;98898.16;;;2.35;83.92
45327;BME280;31062;49.678;24.560;2023-02-12T00:42:22;98892.97;;;2.31;84.20
45327;BME280;31062;49.678;24.560;2023-02-12T00:45:08;98885.56;;;2.10;84.09
45327;BME280;31062;49.678;24.560;2023-02-12T00:47:53;98758.31;;;1.34;83.77
45327;BME280;31062;49.678;24.560;2023-02-12T00:50:39;98905.41;;;2.21;84.10
45327;BME280;31062;49.678;24.560;2023-02-12T00:53:28;98907.09;;;2.41;84.03
45327;BME280;31062;49.678;24.560;2023-02-12T00:56:14;98908.13;;;2.38;84.41
45327;BME280;31062;49.678;24.560;2023-02-12T00:58:59;98705.97;;;1.02;83.87
45327;BME280;31062;49.678;24.560;2023-02-12T01:01:45;98925.25;;;2.38;84.08
45327;BME280;31062;49.678;24.560;2023-02-12T01:04:31;98685.94;;;0.77;84.19
45327;BME280;31062;49.678;24.560;2023-02-12T01:07:16;98953.34;;;2.39;84.33
45327;BME280;31062;49.678;24.560;2023-02-12T01:10:02;98728.81;;;0.99;84.18
45327;BME280;31062;49.678;24.560;2023-02-12T01:12:48;98876.41;;;2.01;84.49
45327;BME280;31062;49.678;24.560;2023-02-12T01:15:34;98927.97;;;2.38;84.12
45327;BME280;31062;49.678;24.560;2023-02-12T01:18:22;98932.97;;;2.40;84.46
45327;BME280;31062;49.678;24.560;2023-02-12T01:21:19;98927.75;;;2.42;84.63
45327;BME280;31062;49.678;24.560;2023-02-12T01:24:06;98914.88;;;2.15;84.43
45327;BME280;31062;49.678;24.560;2023-02-12T01:26:51;98947.88;;;2.44;84.76
45327;BME280;31062;49.678;24.560;2023-02-12T01:29:36;98752.38;;;1.13;84.22
45327;BME280;31062;49.678;24.560;2023-02-12T01:32:24;98944.41;;;2.44;84.87
45327;BME280;31062;49.678;24.560;2023-02-12T01:35:10;98794.56;;;1.35;84.72
45327;BME280;31062;49.678;24.560;2023-02-12T01:37:58;98801.25;;;1.34;84.91
45327;BME280;31062;49.678;24.560;2023-02-12T01:40:44;98957.38;;;2.27;85.00
45327;BME280;31062;49.678;24.560;2023-02-12T01:43:32;98945.72;;;2.10;85.30
45327;BME280;31062;49.678;24.560;2023-02-12T01:46:18;98829.81;;;1.33;85.41
45327;BME280;31062;49.678;24.560;2023-02-12T01:49:06;98971.78;;;2.33;86.18
45327;BME280;31062;49.678;24.560;2023-02-12T01:52:04;98994.41;;;2.33;86.67
45327;BME280;31062;49.678;24.560;2023-02-12T01:54:52;98986.75;;;2.32;86.94
45327;BME280;31062;49.678;24.560;2023-02-12T01:57:44;99026.50;;;2.33;86.57
45327;BME280;31062;49.678;24.560;2023-02-12T02:00:31;98985.25;;;2.25;87.00
45327;BME280;31062;49.678;24.560;2023-02-12T02:03:17;98998.16;;;2.36;86.70
45327;BME280;31062;49.678;24.560;2023-02-12T02:06:16;99038.94;;;2.34;87.05
45327;BME280;31062;49.678;24.560;2023-02-12T02:09:03;98994.47;;;2.05;87.08
45327;BME280;31062;49.678;24.560;2023-02-12T02:11:49;99007.13;;;2.31;87.10
45327;BME280;31062;49.678;24.560;2023-02-12T02:14:55;98995.69;;;2.16;87.40
45327;BME280;31062;49.678;24.560;2023-02-12T02:17:53;98813.69;;;0.90;87.52
45327;BME280;31062;49.678;24.560;2023-02-12T02:24:10;99036.47;;;2.36;87.96
45327;BME280;31062;49.678;24.560;2023-02-12T02:33:38;99056.38;;;2.31;88.29
45327;BME280;31062;49.678;24.560;2023-02-12T02:36:34;99087.44;;;2.33;88.05
45327;BME280;31062;49.678;24.560;2023-02-12T02:39:48;99067.31;;;2.31;87.67
45327;BME280;31062;49.678;24.560;2023-02-12T02:45:36;99082.50;;;2.37;87.52
45327;BME280;31062;49.678;24.560;2023-02-12T02:48:29;99077.78;;;2.38;87.11
45327;BME280;31062;49.678;24.560;2023-02-12T02:51:25;99083.75;;;2.20;86.88
45327;BME280;31062;49.678;24.560;2023-02-12T02:54:33;98957.22;;;1.30;86.87
45327;BME280;31062;49.678;24.560;2023-02-12T02:57:54;99093.69;;;2.34;86.91
45327;BME280;31062;49.678;24.560;2023-02-12T03:01:12;99102.63;;;2.29;86.98
45327;BME280;31062;49.678;24.560;2023-02-12T03:04:05;99108.09;;;2.29;85.93
45327;BME280;31062;49.678;24.560;2023-02-12T03:09:40;99123.28;;;2.24;85.10
45327;BME280;31062;49.678;24.560;2023-02-12T03:12:40;99085.97;;;1.99;83.61
45327;BME280;31062;49.678;24.560;2023-02-12T03:15:38;99119.53;;;2.22;83.22
45327;BME280;31062;49.678;24.560;2023-02-12T03:18:30;99129.00;;;2.21;83.22
45327;BME280;31062;49.678;24.560;2023-02-12T03:21:26;99111.34;;;2.05;84.08
45327;BME280;31062;49.678;24.560;2023-02-12T03:24:23;99119.78;;;1.90;84.09
45327;BME280;31062;49.678;24.560;2023-02-12T03:29:59;99125.69;;;1.61;82.00
45327;BME280;31062;49.678;24.560;2023-02-12T03:33:18;99203.06;;;1.84;82.36
45327;BME280;31062;49.678;24.560;2023-02-12T03:36:34;99013.22;;;0.33;82.30
45327;BME280;31062;49.678;24.560;2023-02-12T03:42:55;99056.81;;;0.27;82.49
45327;BME280;31062;49.678;24.560;2023-02-12T03:45:53;99276.13;;;1.35;82.19
45327;BME280;31062;49.678;24.560;2023-02-12T03:48:58;99235.34;;;1.32;82.00
45327;BME280;31062;49.678;24.560;2023-02-12T03:51:45;99246.03;;;1.30;81.73
45327;BME280;31062;49.678;24.560;2023-02-12T03:54:31;99249.50;;;1.25;80.45
45327;BME280;31062;49.678;24.560;2023-02-12T03:57:19;99052.84;;;-0.09;80.35
45327;BME280;31062;49.678;24.560;2023-02-12T04:00:11;99272.31;;;1.21;80.87
45327;BME280;31062;49.678;24.560;2023-02-12T04:03:00;99261.81;;;1.14;80.93
45327;BME280;31062;49.678;24.560;2023-02-12T04:05:46;99273.03;;;1.16;78.79
45327;BME280;31062;49.678;24.560;2023-02-12T04:08:32;99275.25;;;1.12;78.54
45327;BME280;31062;49.678;24.560;2023-02-12T04:29:15;99268.34;;;0.60;78.97
45327;BME280;31062;49.678;24.560;2023-02-12T04:32:11;99149.03;;;-0.28;78.48
45327;BME280;31062;49.678;24.560;2023-02-12T04:35:24;99330.41;;;0.91;78.22
45327;BME280;31062;49.678;24.560;2023-02-12T04:38:24;99130.53;;;-0.45;77.76
45327;BME280;31062;49.678;24.560;2023-02-12T04:41:12;99327.13;;;0.81;77.60
45327;BME280;31062;49.678;24.560;2023-02-12T04:44:15;99329.56;;;0.79;77.32
45327;BME280;31062;49.678;24.560;2023-02-12T04:47:02;99234.47;;;0.15;77.01
45327;BME280;31062;49.678;24.560;2023-02-12T04:49:48;99349.03;;;0.92;76.15
45327;BME280;31062;49.678;24.560;2023-02-12T04:52:33;99312.34;;;0.67;76.39
45327;BME280;31062;49.678;24.560;2023-02-12T04:55:19;99239.59;;;0.07;75.24
45327;BME280;31062;49.678;24.560;2023-02-12T04:58:05;99373.91;;;0.94;76.09
45327;BME280;31062;49.678;24.560;2023-02-12T05:00:50;99234.88;;;-0.18;75.87
45327;BME280;31062;49.678;24.560;2023-02-12T05:03:39;99368.75;;;0.76;75.79
45327;BME280;31062;49.678;24.560;2023-02-12T05:06:25;99204.91;;;-0.38;75.81
45327;BME280;31062;49.678;24.560;2023-02-12T05:09:16;99391.66;;;0.84;75.19
45327;BME280;31062;49.678;24.560;2023-02-12T05:12:02;99203.25;;;-0.51;75.38
45327;BME280;31062;49.678;24.560;2023-02-12T05:14:48;99399.03;;;0.78;75.61
45327;BME280;31062;49.678;24.560;2023-02-12T05:17:33;99415.75;;;0.86;75.79
45327;BME280;31062;49.678;24.560;2023-02-12T05:20:19;99202.16;;;-0.59;75.36
45327;BME280;31062;49.678;24.560;2023-02-12T05:23:05;99430.72;;;0.70;75.18
45327;BME280;31062;49.678;24.560;2023-02-12T05:25:50;99218.78;;;-0.57;74.60
45327;BME280;31062;49.678;24.560;2023-02-12T05:28:36;99435.31;;;0.84;74.55
45327;BME280;31062;49.678;24.560;2023-02-12T05:31:21;99412.31;;;0.65;73.24
45327;BME280;31062;49.678;24.560;2023-02-12T05:34:09;99250.44;;;-0.59;73.97
45327;BME280;31062;49.678;24.560;2023-02-12T05:36:56;99453.91;;;0.80;73.94
45327;BME280;31062;49.678;24.560;2023-02-12T05:39:42;99466.06;;;0.79;72.68
45327;BME280;31062;49.678;24.560;2023-02-12T05:42:28;99417.56;;;0.48;72.46
45327;BME280;31062;49.678;24.560;2023-02-12T05:45:14;99469.88;;;0.67;72.64
45327;BME280;31062;49.678;24.560;2023-02-12T05:48:02;99469.75;;;0.56;72.06
45327;BME280;31062;49.678;24.560;2023-02-12T05:50:48;99398.69;;;0.04;72.61
45327;BME280;31062;49.678;24.560;2023-02-12T05:53:38;99504.13;;;0.68;72.64
45327;BME280;31062;49.678;24.560;2023-02-12T05:56:27;99501.88;;;0.66;72.76
45327;BME280;31062;49.678;24.560;2023-02-12T05:59:19;99520.78;;;0.50;71.98
45327;BME280;31062;49.678;24.560;2023-02-12T06:02:05;99531.28;;;0.57;71.72
45327;BME280;31062;49.678;24.560;2023-02-12T06:04:51;99323.91;;;-0.65;71.93
45327;BME280;31062;49.678;24.560;2023-02-12T06:07:37;99549.25;;;0.63;71.00
45327;BME280;31062;49.678;24.560;2023-02-12T06:10:22;99534.44;;;0.70;71.53
45327;BME280;31062;49.678;24.560;2023-02-12T06:13:08;99538.94;;;0.73;71.38
45327;BME280;31062;49.678;24.560;2023-02-12T06:15:55;99560.78;;;0.73;71.73
45327;BME280;31062;49.678;24.560;2023-02-12T06:18:41;99559.47;;;0.68;70.62
45327;BME280;31062;49.678;24.560;2023-02-12T06:21:27;99575.63;;;0.72;70.32
45327;BME280;31062;49.678;24.560;2023-02-12T06:24:14;99574.81;;;0.66;70.07
45327;BME280;31062;49.678;24.560;2023-02-12T06:26:59;99592.94;;;0.49;69.41
45327;BME280;31062;49.678;24.560;2023-02-12T06:29:45;99593.59;;;0.58;69.46
45327;BME280;31062;49.678;24.560;2023-02-12T06:32:31;99405.16;;;-0.78;70.02
45327;BME280;31062;49.678;24.560;2023-02-12T06:35:16;99610.72;;;0.59;69.88
45327;BME280;31062;49.678;24.560;2023-02-12T06:38:02;99389.84;;;-0.90;69.03
45327;BME280;31062;49.678;24.560;2023-02-12T06:40:48;99626.88;;;0.62;69.14
45327;BME280;31062;49.678;24.560;2023-02-12T06:43:33;99619.16;;;0.61;68.74
45327;BME280;31062;49.678;24.560;2023-02-12T06:46:19;99660.75;;;0.56;67.88
45327;BME280;31062;49.678;24.560;2023-02-12T06:49:05;99633.16;;;0.33;68.08
45327;BME280;31062;49.678;24.560;2023-02-12T06:51:50;99652.31;;;0.39;68.18
45327;BME280;31062;49.678;24.560;2023-02-12T06:54:36;99621.28;;;0.36;68.81
45327;BME280;31062;49.678;24.560;2023-02-12T06:57:25;99651.38;;;0.42;68.48
45327;BME280;31062;49.678;24.560;2023-02-12T07:00:11;99705.75;;;0.46;68.41
45327;BME280;31062;49.678;24.560;2023-02-12T07:02:57;99670.78;;;0.29;67.92
45327;BME280;31062;49.678;24.560;2023-02-12T07:05:43;99477.91;;;-0.93;67.74
45327;BME280;31062;49.678;24.560;2023-02-12T07:08:30;99506.75;;;-0.72;67.00
45327;BME280;31062;49.678;24.560;2023-02-12T07:11:15;99693.78;;;0.43;67.54
45327;BME280;31062;49.678;24.560;2023-02-12T07:14:01;99640.22;;;0.11;67.41
45327;BME280;31062;49.678;24.560;2023-02-12T07:16:50;99669.81;;;0.32;67.07
45327;BME280;31062;49.678;24.560;2023-02-12T07:19:36;99688.72;;;0.51;66.96
45327;BME280;31062;49.678;24.560;2023-02-12T07:22:22;99687.31;;;0.55;66.79
45327;BME280;31062;49.678;24.560;2023-02-12T07:25:07;99678.19;;;0.44;66.50
45327;BME280;31062;49.678;24.560;2023-02-12T07:27:59;99667.56;;;0.46;66.54
45327;BME280;31062;49.678;24.560;2023-02-12T07:30:44;99660.03;;;0.40;66.83
45327;BME280;31062;49.678;24.560;2023-02-12T07:33:32;99680.69;;;0.62;66.27
45327;BME280;31062;49.678;24.560;2023-02-12T07:36:21;99660.38;;;0.48;66.51
45327;BME280;31062;49.678;24.560;2023-02-12T07:39:06;99481.75;;;-0.85;66.95
45327;BME280;31062;49.678;24.560;2023-02-12T07:41:52;99668.94;;;0.56;66.31
45327;BME280;31062;49.678;24.560;2023-02-12T07:44:39;99697.25;;;0.73;66.91
45327;BME280;31062;49.678;24.560;2023-02-12T07:47:25;99495.97;;;-0.66;66.56
45327;BME280;31062;49.678;24.560;2023-02-12T07:50:17;99706.66;;;0.72;66.65
45327;BME280;31062;49.678;24.560;2023-02-12T07:53:02;99656.94;;;0.33;65.78
45327;BME280;31062;49.678;24.560;2023-02-12T07:55:48;99695.13;;;0.48;66.54
45327;BME280;31062;49.678;24.560;2023-02-12T07:58:33;99676.97;;;0.59;67.44
45327;BME280;31062;49.678;24.560;2023-02-12T08:04:10;99720.59;;;0.74;67.29
45327;BME280;31062;49.678;24.560;2023-02-12T08:06:57;99554.38;;;-0.38;66.35
45327;BME280;31062;49.678;24.560;2023-02-12T08:09:43;99721.56;;;0.71;66.40
45327;BME280;31062;49.678;24.560;2023-02-12T08:12:35;99715.25;;;0.65;66.68
45327;BME280;31062;49.678;24.560;2023-02-12T08:15:21;99560.59;;;-0.37;66.81
45327;BME280;31062;49.678;24.560;2023-02-12T08:18:18;99724.19;;;0.51;66.84
45327;BME280;31062;49.678;24.560;2023-02-12T08:21:17;99500.47;;;-0.78;66.97
45327;BME280;31062;49.678;24.560;2023-02-12T08:24:04;99757.22;;;0.82;66.79
45327;BME280;31062;49.678;24.560;2023-02-12T08:26:51;99714.84;;;0.72;66.23
45327;BME280;31062;49.678;24.560;2023-02-12T08:29:39;99747.31;;;0.85;65.97
45327;BME280;31062;49.678;24.560;2023-02-12T08:32:27;99749.56;;;0.86;65.68
45327;BME280;31062;49.678;24.560;2023-02-12T08:35:14;99786.28;;;0.85;65.26
45327;BME280;31062;49.678;24.560;2023-02-12T08:37:59;99551.00;;;-0.48;64.20
45327;BME280;31062;49.678;24.560;2023-02-12T08:40:45;99745.44;;;0.76;64.02
45327;BME280;31062;49.678;24.560;2023-02-12T08:43:31;99588.22;;;-0.30;64.52
45327;BME280;31062;49.678;24.560;2023-02-12T08:46:23;99593.47;;;-0.26;63.75
45327;BME280;31062;49.678;24.560;2023-02-12T08:49:18;99644.06;;;0.04;64.68
45327;BME280;31062;49.678;24.560;2023-02-12T08:52:04;99610.59;;;-0.11;63.69
45327;BME280;31062;49.678;24.560;2023-02-12T08:54:49;99660.06;;;0.11;64.08
45327;BME280;31062;49.678;24.560;2023-02-12T08:57:35;99568.66;;;-0.28;63.68
45327;BME280;31062;49.678;24.560;2023-02-12T09:00:21;99763.75;;;1.05;62.49
45327;BME280;31062;49.678;24.560;2023-02-12T09:03:08;99798.59;;;1.25;62.43
45327;BME280;31062;49.678;24.560;2023-02-12T09:06:01;99632.22;;;0.07;62.88
45327;BME280;31062;49.678;24.560;2023-02-12T09:08:50;99806.78;;;1.25;63.32
45327;BME280;31062;49.678;24.560;2023-02-12T09:11:44;99786.25;;;1.14;62.36
45327;BME280;31062;49.678;24.560;2023-02-12T09:14:29;99844.34;;;1.30;62.80
45327;BME280;31062;49.678;24.560;2023-02-12T09:17:15;99813.53;;;1.29;61.97
45327;BME280;31062;49.678;24.560;2023-02-12T09:20:04;99781.00;;;1.11;62.44
45327;BME280;31062;49.678;24.560;2023-02-12T09:22:49;99843.69;;;1.35;61.48
45327;BME280;31062;49.678;24.560;2023-02-12T09:25:40;99845.03;;;1.25;61.92
45327;BME280;31062;49.678;24.560;2023-02-12T09:28:38;99744.88;;;0.43;62.79
45327;BME280;31062;49.678;24.560;2023-02-12T09:31:26;99877.72;;;1.04;62.09
45327;BME280;31062;49.678;24.560;2023-02-12T09:34:12;99865.66;;;0.96;62.93
45327;BME280;31062;49.678;24.560;2023-02-12T09:36:57;99862.53;;;1.03;63.27
45327;BME280;31062;49.678;24.560;2023-02-12T09:39:43;99863.09;;;1.07;62.49
45327;BME280;31062;49.678;24.560;2023-02-12T09:42:34;99892.88;;;1.05;62.41
45327;BME280;31062;49.678;24.560;2023-02-12T09:45:26;99840.72;;;0.89;63.24
45327;BME280;31062;49.678;24.560;2023-02-12T09:48:31;99775.75;;;0.49;63.05
45327;BME280;31062;49.678;24.560;2023-02-12T09:51:19;99845.50;;;1.08;63.35
45327;BME280;31062;49.678;24.560;2023-02-12T09:54:12;99849.19;;;1.05;62.81
45327;BME280;31062;49.678;24.560;2023-02-12T09:57:00;99888.06;;;1.30;62.26
45327;BME280;31062;49.678;24.560;2023-02-12T10:00:15;99885.50;;;1.26;63.42
45327;BME280;31062;49.678;24.560;2023-02-12T10:03:11;99903.41;;;1.27;63.58
45327;BME280;31062;49.678;24.560;2023-02-12T10:06:03;99918.13;;;1.30;63.96
45327;BME280;31062;49.678;24.560;2023-02-12T10:16:08;99891.72;;;1.27;64.56
45327;BME280;31062;49.678;24.560;2023-02-12T10:19:02;99866.88;;;1.10;64.83
45327;BME280;31062;49.678;24.560;2023-02-12T10:22:04;99773.94;;;0.31;64.52
45327;BME280;31062;49.678;24.560;2023-02-12T10:28:15;99757.50;;;0.55;64.73
45327;BME280;31062;49.678;24.560;2023-02-12T10:31:06;99706.50;;;0.31;63.03
45327;BME280;31062;49.678;24.560;2023-02-12T10:33:55;99893.38;;;1.68;63.80
45327;BME280;31062;49.678;24.560;2023-02-12T10:37:42;99895.78;;;1.81;61.18
45327;BME280;31062;49.678;24.560;2023-02-12T10:40:33;99893.13;;;1.86;61.75
45327;BME280;31062;49.678;24.560;2023-02-12T10:43:24;99713.06;;;0.69;61.05
45327;BME280;31062;49.678;24.560;2023-02-12T10:46:15;99913.25;;;2.03;61.97
45327;BME280;31062;49.678;24.560;2023-02-12T10:49:02;99831.56;;;1.56;58.80
45327;BME280;31062;49.678;24.560;2023-02-12T10:55:31;99733.75;;;0.90;60.08
45327;BME280;31062;49.678;24.560;2023-02-12T10:58:21;99918.19;;;1.99;59.83
45327;BME280;31062;49.678;24.560;2023-02-12T11:01:16;99889.13;;;2.02;60.02
45327;BME280;31062;49.678;24.560;2023-02-12T11:07:08;99901.91;;;2.11;59.47
45327;BME280;31062;49.678;24.560;2023-02-12T11:09:59;99898.72;;;2.12;60.27
45327;BME280;31062;49.678;24.560;2023-02-12T11:12:48;99907.25;;;1.99;59.09
45327;BME280;31062;49.678;24.560;2023-02-12T11:15:45;99871.84;;;1.76;59.65
45327;BME280;31062;49.678;24.560;2023-02-12T11:18:32;99727.19;;;0.82;60.58
45327;BME280;31062;49.678;24.560;2023-02-12T11:21:22;99869.59;;;1.74;60.40
45327;BME280;31062;49.678;24.560;2023-02-12T11:24:29;99890.53;;;1.77;60.94
45327;BME280;31062;49.678;24.560;2023-02-12T11:27:25;99850.06;;;1.46;60.59
45327;BME280;31062;49.678;24.560;2023-02-12T11:30:19;99860.94;;;1.61;60.29
45327;BME280;31062;49.678;24.560;2023-02-12T11:33:33;99875.75;;;1.69;60.33
45327;BME280;31062;49.678;24.560;2023-02-12T11:36:24;99861.00;;;1.46;60.44
45327;BME280;31062;49.678;24.560;2023-02-12T11:39:22;99811.66;;;1.20;60.75
45327;BME280;31062;49.678;24.560;2023-02-12T11:42:20;99906.97;;;1.62;60.97
45327;BME280;31062;49.678;24.560;2023-02-12T11:45:15;99905.25;;;1.65;62.01
45327;BME280;31062;49.678;24.560;2023-02-12T11:48:15;99747.13;;;0.73;62.50
45327;BME280;31062;49.678;24.560;2023-02-12T11:51:06;99757.75;;;0.86;62.26
45327;BME280;31062;49.678;24.560;2023-02-12T11:53:55;99768.75;;;1.06;61.47
45327;BME280;31062;49.678;24.560;2023-02-12T11:56:44;99700.47;;;0.57;60.34
45327;BME280;31062;49.678;24.560;2023-02-12T11:59:42;99833.88;;;1.43;60.87
45327;BME280;31062;49.678;24.560;2023-02-12T12:02:34;99773.31;;;0.95;59.95
45327;BME280;31062;49.678;24.560;2023-02-12T12:05:30;99929.75;;;1.74;60.76
45327;BME280;31062;49.678;24.560;2023-02-12T12:21:41;99938.19;;;1.91;59.80
45327;BME280;31062;49.678;24.560;2023-02-12T12:24:34;99898.97;;;1.94;61.22
45327;BME280;31062;49.678;24.560;2023-02-12T12:33:48;99904.94;;;2.33;60.33
45327;BME280;31062;49.678;24.560;2023-02-12T12:37:00;99907.81;;;2.44;60.48
45327;BME280;31062;49.678;24.560;2023-02-12T12:40:05;99912.66;;;2.55;60.32
45327;BME280;31062;49.678;24.560;2023-02-12T12:43:10;99905.53;;;2.63;59.90
45327;BME280;31062;49.678;24.560;2023-02-12T12:46:18;99908.81;;;2.67;60.08
45327;BME280;31062;49.678;24.560;2023-02-12T13:07:50;99908.19;;;2.77;58.97
45327;BME280;31062;49.678;24.560;2023-02-12T13:10:47;99904.22;;;2.78;59.52
45327;BME280;31062;49.678;24.560;2023-02-12T13:13:38;99912.03;;;2.65;59.96
45327;BME280;31062;49.678;24.560;2023-02-12T13:16:37;99910.22;;;2.82;59.30
45327;BME280;31062;49.678;24.560;2023-02-12T13:19:39;99921.47;;;2.84;59.42
45327;BME280;31062;49.678;24.560;2023-02-12T13:22:36;99871.66;;;2.60;59.65
45327;BME280;31062;49.678;24.560;2023-02-12T13:28:39;99904.22;;;2.78;59.52
45327;BME280;31062;49.678;24.560;2023-02-12T13:31:29;99903.53;;;2.63;58.87
45327;BME280;31062;49.678;24.560;2023-02-12T13:34:19;99888.38;;;2.42;58.87
45327;BME280;31062;49.678;24.560;2023-02-12T13:37:13;99877.44;;;2.42;58.36
45327;BME280;31062;49.678;24.560;2023-02-12T13:40:04;99862.53;;;2.23;57.88
45327;BME280;31062;49.678;24.560;2023-02-12T13:43:04;99901.53;;;2.38;59.18
45327;BME280;31062;49.678;24.560;2023-02-12T13:46:02;99908.22;;;2.37;59.57
45327;BME280;31062;49.678;24.560;2023-02-12T13:52:06;99855.00;;;1.97;57.41
45327;BME280;31062;49.678;24.560;2023-02-12T14:01:47;99931.41;;;2.41;57.75
45327;BME280;31062;49.678;24.560;2023-02-12T14:04:53;99928.47;;;2.45;58.28
45327;BME280;31062;49.678;24.560;2023-02-12T14:07:43;99960.31;;;2.42;57.35
45327;BME280;31062;49.678;24.560;2023-02-12T14:10:39;99894.81;;;2.19;58.15
45327;BME280;31062;49.678;24.560;2023-02-12T14:13:26;99774.47;;;1.43;57.56
45327;BME280;31062;49.678;24.560;2023-02-12T14:28:14;99879.22;;;2.04;58.55
45327;BME280;31062;49.678;24.560;2023-02-12T14:37:15;99794.81;;;1.57;58.21
45327;BME280;31062;49.678;24.560;2023-02-12T14:43:35;99790.09;;;1.57;57.87
45327;BME280;31062;49.678;24.560;2023-02-12T14:46:56;99859.50;;;2.00;57.87
45327;BME280;31062;49.678;24.560;2023-02-12T14:49:47;99959.81;;;2.64;58.19
45327;BME280;31062;49.678;24.560;2023-02-12T14:52:39;99863.88;;;1.92;58.31
45327;BME280;31062;49.678;24.560;2023-02-12T14:55:30;99977.97;;;2.62;58.70
45327;BME280;31062;49.678;24.560;2023-02-12T14:58:21;99976.72;;;2.63;58.69
45327;BME280;31062;49.678;24.560;2023-02-12T15:01:09;99793.34;;;1.41;58.84
45327;BME280;31062;49.678;24.560;2023-02-12T15:03:56;99981.03;;;2.69;58.69
45327;BME280;31062;49.678;24.560;2023-02-12T15:06:51;99960.09;;;2.46;58.40
45327;BME280;31062;49.678;24.560;2023-02-12T15:10:12;99948.06;;;2.38;58.38
45327;BME280;31062;49.678;24.560;2023-02-12T15:13:40;99995.41;;;2.64;58.38
45327;BME280;31062;49.678;24.560;2023-02-12T15:16:48;99999.66;;;2.65;58.41
45327;BME280;31062;49.678;24.560;2023-02-12T15:19:47;99994.19;;;2.65;58.67
45327;BME280;31062;49.678;24.560;2023-02-12T15:22:39;99994.66;;;2.64;58.67
45327;BME280;31062;49.678;24.560;2023-02-12T15:25:57;99996.63;;;2.63;58.83
45327;BME280;31062;49.678;24.560;2023-02-12T15:28:47;99959.00;;;2.38;58.12
45327;BME280;31062;49.678;24.560;2023-02-12T15:31:34;99986.78;;;2.31;58.38
45327;BME280;31062;49.678;24.560;2023-02-12T15:34:23;99792.84;;;1.22;58.16
45327;BME280;31062;49.678;24.560;2023-02-12T15:37:21;99998.00;;;2.53;58.40
45327;BME280;31062;49.678;24.560;2023-02-12T15:40:13;99962.53;;;2.24;58.52
45327;BME280;31062;49.678;24.560;2023-02-12T15:43:02;99988.97;;;2.47;58.57
45327;BME280;31062;49.678;24.560;2023-02-12T15:45:50;100001.38;;;2.42;57.88
45327;BME280;31062;49.678;24.560;2023-02-12T15:48:37;100000.06;;;2.38;58.55
45327;BME280;31062;49.678;24.560;2023-02-12T15:51:36;100000.53;;;2.36;58.91
45327;BME280;31062;49.678;24.560;2023-02-12T15:54:28;100036.97;;;2.28;58.96
45327;BME280;31062;49.678;24.560;2023-02-12T15:57:20;100009.84;;;2.10;59.04
45327;BME280;31062;49.678;24.560;2023-02-12T16:00:24;99988.38;;;2.02;58.76
45327;BME280;31062;49.678;24.560;2023-02-12T16:03:25;99998.72;;;1.98;58.89
45327;BME280;31062;49.678;24.560;2023-02-12T16:06:16;99835.63;;;0.81;59.08
45327;BME280;31062;49.678;24.560;2023-02-12T16:09:24;100007.06;;;1.89;59.72
45327;BME280;31062;49.678;24.560;2023-02-12T16:12:16;100039.03;;;1.83;59.98
45327;BME280;31062;49.678;24.560;2023-02-12T16:15:23;100018.09;;;1.51;60.45
45327;BME280;31062;49.678;24.560;2023-02-12T16:18:26;100027.06;;;1.66;60.77
45327;BME280;31062;49.678;24.560;2023-02-12T16:21:16;100048.09;;;1.60;60.81
45327;BME280;31062;49.678;24.560;2023-02-12T16:24:25;100056.09;;;1.49;60.78
45327;BME280;31062;49.678;24.560;2023-02-12T16:27:18;100042.22;;;1.38;61.64
45327;BME280;31062;49.678;24.560;2023-02-12T16:33:40;100079.69;;;1.22;61.73
45327;BME280;31062;49.678;24.560;2023-02-12T16:36:30;100052.44;;;1.13;62.41
45327;BME280;31062;49.678;24.560;2023-02-12T16:48:21;100070.47;;;0.96;63.32
45327;BME280;31062;49.678;24.560;2023-02-12T16:51:30;100072.28;;;0.99;64.25
45327;BME280;31062;49.678;24.560;2023-02-12T16:54:43;100068.91;;;1.04;64.34
45327;BME280;31062;49.678;24.560;2023-02-12T16:57:29;100078.41;;;1.09;64.35
45327;BME280;31062;49.678;24.560;2023-02-12T17:00:18;100055.59;;;0.97;65.03
45327;BME280;31062;49.678;24.560;2023-02-12T17:03:11;99889.75;;;0.06;64.59
45327;BME280;31062;49.678;24.560;2023-02-12T17:05:57;100053.19;;;1.14;64.00
45327;BME280;31062;49.678;24.560;2023-02-12T17:08:44;100073.22;;;1.35;64.34
45327;BME280;31062;49.678;24.560;2023-02-12T17:11:33;99938.13;;;0.44;63.92
45327;BME280;31062;49.678;24.560;2023-02-12T17:14:20;100071.78;;;1.25;64.19
45327;BME280;31062;49.678;24.560;2023-02-12T17:17:09;100080.09;;;1.30;63.92
45327;BME280;31062;49.678;24.560;2023-02-12T17:19:59;100103.34;;;1.26;63.46
45327;BME280;31062;49.678;24.560;2023-02-12T17:22:53;100076.97;;;1.22;63.58
45327;BME280;31062;49.678;24.560;2023-02-12T17:25:39;100086.94;;;1.26;63.93
45327;BME280;31062;49.678;24.560;2023-02-12T17:28:25;100114.03;;;1.14;63.84
45327;BME280;31062;49.678;24.560;2023-02-12T17:31:11;100100.63;;;1.02;63.97